Time;durP1;ratioP1;P1;durP2;ratioP2;P2;SDS_P1;SDS_P2;PMS_P1;PMS_P2;Temp;Humidity;BMP_temperature;BMP_pressure;BME280_temperature;BME280_humidity;BME280_pressure;Samples;Min_cycle;Max_cycle;Signal;HPM_P1;HPM_P2
2021/03/04 00:02:08;;;;;;;49.97;29.30;;;;;;;;;;5052544;28;20214;-85
2021/03/04 00:04:34;;;;;;;44.27;28.20;;;;;;;;;;5052153;28;20306;-85
2021/03/04 00:06:59;;;;;;;46.80;27.17;;;;;;;;;;5052402;28;20661;-85
2021/03/04 00:09:24;;;;;;;48.67;28.50;;;;;;;;;;5052279;28;20168;-84
2021/03/04 00:11:50;;;;;;;44.97;27.30;;;;;;;;;;5052389;28;20168;-85
2021/03/04 00:14:15;;;;;;;50.87;26.93;;;;;;;;;;5051658;28;20167;-85
2021/03/04 00:16:41;;;;;;;49.53;28.20;;;;;;;;;;5052539;28;20185;-85
2021/03/04 00:19:06;;;;;;;48.50;28.50;;;;;;;;;;5051754;28;20681;-85
2021/03/04 00:21:32;;;;;;;48.37;27.30;;;;;;;;;;5051648;28;20520;-84
2021/03/04 00:23:57;;;;;;;43.70;26.40;;;;;;;;;;5052454;28;20258;-84
2021/03/04 00:26:22;;;;;;;44.60;25.77;;;;;;;;;;5051906;28;20202;-84
2021/03/04 00:28:48;;;;;;;48.90;27.13;;;;;;;;;;5051999;28;20505;-84
2021/03/04 00:31:13;;;;;;;45.83;27.43;;;;;;;;;;5051733;28;20215;-84
2021/03/04 00:33:39;;;;;;;49.53;28.07;;;;;;;;;;5051271;28;20254;-85
2021/03/04 00:36:04;;;;;;;44.67;27.47;;;;;;;;;;5051950;28;20198;-84
2021/03/04 00:38:29;;;;;;;46.43;28.17;;;;;;;;;;5050347;28;20664;-84
2021/03/04 00:40:55;;;;;;;46.57;28.87;;;;;;;;;;5050363;28;20180;-84
2021/03/04 00:43:20;;;;;;;45.30;27.80;;;;;;;;;;5052148;28;20200;-84
2021/03/04 00:45:45;;;;;;;44.70;27.83;;;;;;;;;;5051373;28;20168;-84
2021/03/04 00:48:11;;;;;;;49.97;30.53;;;;;;;;;;5051534;28;20207;-84
2021/03/04 00:50:40;;;;;;;46.97;29.57;;;;;;;;;;5050452;28;20580;-85
2021/03/04 00:53:05;;;;;;;46.47;28.80;;;;;;;;;;5051413;28;20168;-84
2021/03/04 00:55:31;;;;;;;50.70;29.63;;;;;;;;;;5051081;28;20259;-84
2021/03/04 00:57:56;;;;;;;45.63;27.97;;;;;;;;;;5051356;28;20187;-85
2021/03/04 01:00:22;;;;;;;50.93;28.73;;;;;;;;;;5051197;28;20232;-85
2021/03/04 01:02:47;;;;;;;51.27;29.63;;;;;;;;;;5051251;28;20171;-84
2021/03/04 01:05:12;;;;;;;44.83;28.13;;;;;;;;;;5051319;28;20175;-84
2021/03/04 01:07:38;;;;;;;45.03;27.73;;;;;;;;;;5051552;28;20180;-84
2021/03/04 01:10:07;;;;;;;45.77;27.23;;;;;;;;;;5051058;28;20258;-84
2021/03/04 01:12:33;;;;;;;49.63;27.13;;;;;;;;;;5051838;28;20187;-84
2021/03/04 01:14:58;;;;;;;45.47;27.07;;;;;;;;;;5051210;28;20168;-84
2021/03/04 01:17:24;;;;;;;45.63;28.80;;;;;;;;;;5050901;28;20179;-84
2021/03/04 01:19:49;;;;;;;49.63;28.10;;;;;;;;;;5051726;28;20619;-84
2021/03/04 01:22:14;;;;;;;46.77;29.33;;;;;;;;;;5051070;28;20306;-84
2021/03/04 01:24:40;;;;;;;46.50;28.03;;;;;;;;;;5051092;28;20175;-85
2021/03/04 01:27:05;;;;;;;47.20;27.50;;;;;;;;;;5050820;28;20538;-85
2021/03/04 01:29:31;;;;;;;42.87;27.37;;;;;;;;;;5050769;28;20179;-85
2021/03/04 01:31:56;;;;;;;50.20;28.97;;;;;;;;;;5050981;28;20175;-85
2021/03/04 01:34:21;;;;;;;50.57;28.13;;;;;;;;;;5051145;28;20208;-84
2021/03/04 01:36:47;;;;;;;48.83;28.80;;;;;;;;;;5050812;28;20241;-85
2021/03/04 01:39:12;;;;;;;45.43;28.33;;;;;;;;;;5051047;28;20270;-85
2021/03/04 01:41:37;;;;;;;48.27;28.43;;;;;;;;;;5050812;28;20175;-85
2021/03/04 01:44:03;;;;;;;51.40;28.37;;;;;;;;;;5050218;28;20530;-85
2021/03/04 01:46:28;;;;;;;51.50;28.50;;;;;;;;;;5050225;28;20176;-85
2021/03/04 01:48:54;;;;;;;48.97;28.70;;;;;;;;;;5049810;28;20190;-84
2021/03/04 01:51:20;;;;;;;48.60;29.00;;;;;;;;;;5050782;28;20275;-84
2021/03/04 01:53:45;;;;;;;50.13;28.33;;;;;;;;;;5049121;28;20748;-85
2021/03/04 01:56:11;;;;;;;46.70;28.23;;;;;;;;;;5050699;28;20756;-85
2021/03/04 01:58:37;;;;;;;46.07;27.70;;;;;;;;;;5049238;28;20215;-85
2021/03/04 02:01:02;;;;;;;47.70;28.03;;;;;;;;;;5050705;28;20219;-84
2021/03/04 02:03:27;;;;;;;47.60;28.63;;;;;;;;;;5050436;28;20204;-84
2021/03/04 02:05:53;;;;;;;47.70;28.37;;;;;;;;;;5049284;28;20690;-84
2021/03/04 02:08:24;;;;;;;49.83;30.03;;;;;;;;;;5050720;28;20171;-84
2021/03/04 02:10:55;;;;;;;47.67;28.17;;;;;;;;;;5050680;28;20176;-84
2021/03/04 02:13:23;;;;;;;49.77;27.30;;;;;;;;;;5050603;28;20619;-84
2021/03/04 02:15:54;;;;;;;48.07;27.63;;;;;;;;;;5050441;28;20555;-84
2021/03/04 02:18:21;;;;;;;48.77;28.60;;;;;;;;;;5050397;28;20200;-84
2021/03/04 02:21:12;;;;;;;49.37;29.13;;;;;;;;;;5050782;28;20179;-84
2021/03/04 02:23:50;;;;;;;48.47;28.70;;;;;;;;;;5050313;28;20637;-84
2021/03/04 02:26:34;;;;;;;47.47;28.80;;;;;;;;;;5050371;28;20317;-84
2021/03/04 02:29:00;;;;;;;49.17;28.30;;;;;;;;;;5050327;28;20187;-84
2021/03/04 02:31:28;;;;;;;50.37;28.17;;;;;;;;;;5050083;28;20180;-84
2021/03/04 02:33:54;;;;;;;48.33;28.27;;;;;;;;;;5050277;28;20168;-84
2021/03/04 02:36:20;;;;;;;47.23;28.33;;;;;;;;;;5050317;28;20195;-84
2021/03/04 02:38:45;;;;;;;49.03;29.20;;;;;;;;;;5050056;28;20207;-84
2021/03/04 02:41:11;;;;;;;50.13;27.90;;;;;;;;;;5049014;28;20180;-84
2021/03/04 02:43:37;;;;;;;44.97;27.70;;;;;;;;;;5050287;28;20176;-84
2021/03/04 02:46:03;;;;;;;49.53;28.23;;;;;;;;;;5050234;28;20517;-84
2021/03/04 02:48:31;;;;;;;48.73;28.00;;;;;;;;;;5049881;28;20176;-84
2021/03/04 02:50:57;;;;;;;43.67;27.30;;;;;;;;;;5050175;28;20165;-84
2021/03/04 02:53:22;;;;;;;44.93;27.87;;;;;;;;;;5050194;28;20614;-84
2021/03/04 02:55:49;;;;;;;44.13;27.07;;;;;;;;;;5050402;28;20882;-84
2021/03/04 02:58:15;;;;;;;44.30;27.03;;;;;;;;;;5053452;28;20681;-84
2021/03/04 03:00:40;;;;;;;44.63;27.50;;;;;;;;;;5053528;28;20281;-84
2021/03/04 03:03:12;;;;;;;44.63;26.33;;;;;;;;;;5053752;28;20176;-85
2021/03/04 03:05:38;;;;;;;46.47;26.97;;;;;;;;;;5053243;28;20172;-84
2021/03/04 03:08:04;;;;;;;44.93;26.67;;;;;;;;;;5053768;28;20172;-85
2021/03/04 03:10:29;;;;;;;44.40;26.03;;;;;;;;;;5053059;28;20891;-84
2021/03/04 03:13:00;;;;;;;45.40;26.63;;;;;;;;;;5053011;28;20714;-84
2021/03/04 03:15:26;;;;;;;44.10;27.00;;;;;;;;;;5053173;28;20170;-85
2021/03/04 03:17:52;;;;;;;48.30;26.83;;;;;;;;;;5053161;28;20566;-85
2021/03/04 03:20:18;;;;;;;42.43;25.83;;;;;;;;;;5052241;28;20176;-85
2021/03/04 03:22:44;;;;;;;46.57;26.63;;;;;;;;;;5053356;28;20229;-85
2021/03/04 03:25:10;;;;;;;44.97;26.87;;;;;;;;;;5053046;28;20538;-85
2021/03/04 03:27:36;;;;;;;46.80;26.33;;;;;;;;;;5053529;28;20579;-85
2021/03/04 03:30:05;;;;;;;45.10;26.03;;;;;;;;;;5053380;28;20175;-84
2021/03/04 03:32:31;;;;;;;41.23;26.03;;;;;;;;;;5053038;28;20200;-85
2021/03/04 03:34:57;;;;;;;42.83;26.97;;;;;;;;;;5052531;28;20230;-85
2021/03/04 03:37:22;;;;;;;46.63;27.10;;;;;;;;;;5052905;28;20172;-85
2021/03/04 03:39:49;;;;;;;40.27;25.10;;;;;;;;;;5053467;28;20180;-85
2021/03/04 03:42:15;;;;;;;40.67;25.87;;;;;;;;;;5053153;28;20176;-85
2021/03/04 03:44:41;;;;;;;40.90;25.20;;;;;;;;;;5052997;28;20171;-85
2021/03/04 03:47:06;;;;;;;41.80;25.90;;;;;;;;;;5051636;28;20183;-85
2021/03/04 03:49:32;;;;;;;41.80;25.40;;;;;;;;;;5051570;28;20180;-85
2021/03/04 03:52:00;;;;;;;43.17;26.23;;;;;;;;;;5052419;28;20172;-85
2021/03/04 03:54:26;;;;;;;43.90;26.83;;;;;;;;;;5051077;28;20172;-85
2021/03/04 03:56:52;;;;;;;42.30;25.83;;;;;;;;;;5052856;28;20179;-85
2021/03/04 03:59:17;;;;;;;43.27;25.87;;;;;;;;;;5052230;28;20604;-85
2021/03/04 04:01:43;;;;;;;48.07;26.97;;;;;;;;;;5052210;28;20277;-85
2021/03/04 04:04:08;;;;;;;45.30;26.33;;;;;;;;;;5052332;28;20172;-85
2021/03/04 04:06:33;;;;;;;44.77;26.33;;;;;;;;;;5052945;28;20179;-85
2021/03/04 04:08:59;;;;;;;43.60;26.60;;;;;;;;;;5051259;28;20180;-85
2021/03/04 04:11:25;;;;;;;47.37;27.13;;;;;;;;;;5052352;28;20328;-85
2021/03/04 04:13:50;;;;;;;46.30;26.97;;;;;;;;;;5052161;28;20676;-85
2021/03/04 04:16:16;;;;;;;44.63;26.23;;;;;;;;;;5050787;28;20636;-85
2021/03/04 04:18:42;;;;;;;43.63;25.60;;;;;;;;;;5052151;28;20204;-85
2021/03/04 04:21:08;;;;;;;42.27;26.53;;;;;;;;;;5052222;28;20176;-85
2021/03/04 04:23:34;;;;;;;45.63;25.97;;;;;;;;;;5051968;28;20250;-85
2021/03/04 04:26:00;;;;;;;42.73;25.97;;;;;;;;;;5052612;28;20183;-85
2021/03/04 04:28:26;;;;;;;46.20;26.83;;;;;;;;;;5052018;28;20180;-85
2021/03/04 04:30:51;;;;;;;49.97;27.03;;;;;;;;;;5050621;28;20190;-85
2021/03/04 04:33:17;;;;;;;44.57;25.87;;;;;;;;;;5051879;28;20168;-85
2021/03/04 04:35:42;;;;;;;42.70;25.60;;;;;;;;;;5051917;28;20188;-85
2021/03/04 04:38:07;;;;;;;42.60;25.73;;;;;;;;;;5052063;28;20204;-85
2021/03/04 04:40:33;;;;;;;42.23;25.80;;;;;;;;;;5052089;28;20523;-85
2021/03/04 04:42:58;;;;;;;41.07;24.87;;;;;;;;;;5051793;28;20325;-85
2021/03/04 04:45:24;;;;;;;41.13;25.03;;;;;;;;;;5051535;28;20179;-85
2021/03/04 04:47:49;;;;;;;42.60;26.00;;;;;;;;;;5050105;28;20183;-85
2021/03/04 04:50:14;;;;;;;41.47;24.87;;;;;;;;;;5050458;28;20208;-85
2021/03/04 04:52:40;;;;;;;41.80;25.57;;;;;;;;;;5051741;28;20281;-85
2021/03/04 04:55:05;;;;;;;42.40;25.53;;;;;;;;;;5051586;28;20172;-85
2021/03/04 04:57:31;;;;;;;44.27;25.57;;;;;;;;;;5050088;28;20179;-85
2021/03/04 04:59:56;;;;;;;42.77;24.90;;;;;;;;;;5051239;28;20172;-86
2021/03/04 05:02:21;;;;;;;39.73;24.67;;;;;;;;;;5051904;28;20171;-85
2021/03/04 05:04:46;;;;;;;41.27;25.33;;;;;;;;;;5051710;28;20174;-85
2021/03/04 05:07:12;;;;;;;43.90;24.53;;;;;;;;;;5051251;28;20206;-85
2021/03/04 05:09:37;;;;;;;44.53;27.23;;;;;;;;;;5051213;28;20171;-84
2021/03/04 05:12:03;;;;;;;42.30;24.17;;;;;;;;;;5051173;28;20180;-84
2021/03/04 05:14:28;;;;;;;43.10;24.73;;;;;;;;;;5051526;28;20178;-84
2021/03/04 05:16:53;;;;;;;40.80;24.53;;;;;;;;;;5049749;28;20176;-86
2021/03/04 05:19:19;;;;;;;41.73;24.93;;;;;;;;;;5050961;28;20218;-85
2021/03/04 05:21:44;;;;;;;44.47;24.67;;;;;;;;;;5051170;28;20164;-86
2021/03/04 05:24:09;;;;;;;44.23;24.63;;;;;;;;;;5050214;28;20191;-85
2021/03/04 05:26:36;;;;;;;40.73;25.13;;;;;;;;;;5051021;28;20242;-86
2021/03/04 05:29:02;;;;;;;41.93;25.97;;;;;;;;;;5051336;28;20183;-86
2021/03/04 05:31:27;;;;;;;41.80;25.67;;;;;;;;;;5051214;28;20516;-85
2021/03/04 05:33:52;;;;;;;44.33;26.13;;;;;;;;;;5051142;28;20605;-86
2021/03/04 05:36:18;;;;;;;42.27;26.00;;;;;;;;;;5050910;28;20187;-85
2021/03/04 05:38:43;;;;;;;47.27;27.20;;;;;;;;;;5050945;28;20214;-85
2021/03/04 05:41:08;;;;;;;44.20;25.73;;;;;;;;;;5049297;28;20183;-85
2021/03/04 05:43:34;;;;;;;41.53;25.30;;;;;;;;;;5051342;28;20191;-85
2021/03/04 05:46:00;;;;;;;44.00;25.83;;;;;;;;;;5051041;28;20186;-84
2021/03/04 05:48:28;;;;;;;45.13;27.03;;;;;;;;;;5050789;28;20183;-85
2021/03/04 05:50:55;;;;;;;59.80;31.17;;;;;;;;;;5050256;28;20176;-85
2021/03/04 05:53:21;;;;;;;61.10;32.13;;;;;;;;;;5049240;28;20172;-85
2021/03/04 05:55:46;;;;;;;57.77;30.63;;;;;;;;;;5050892;28;20172;-85
2021/03/04 05:58:12;;;;;;;54.10;28.90;;;;;;;;;;5050466;28;20572;-85
2021/03/04 06:00:40;;;;;;;55.30;30.53;;;;;;;;;;5050908;28;20282;-85
2021/03/04 06:03:06;;;;;;;59.30;30.97;;;;;;;;;;5053942;28;20179;-85
2021/03/04 06:05:31;;;;;;;65.23;31.30;;;;;;;;;;5053664;28;20626;-86
2021/03/04 06:07:56;;;;;;;58.13;30.90;;;;;;;;;;5050731;28;20192;-86
2021/03/04 06:10:22;;;;;;;63.77;33.63;;;;;;;;;;5050768;28;20266;-86
2021/03/04 06:12:47;;;;;;;58.00;32.33;;;;;;;;;;5050886;28;20554;-85
2021/03/04 06:15:13;;;;;;;53.40;31.47;;;;;;;;;;5051044;28;20628;-85
2021/03/04 06:17:38;;;;;;;51.43;28.00;;;;;;;;;;5051002;28;20206;-85
2021/03/04 06:20:07;;;;;;;50.90;30.07;;;;;;;;;;5050533;28;20275;-85
2021/03/04 06:22:33;;;;;;;54.40;32.97;;;;;;;;;;5050354;28;20202;-85
2021/03/04 06:24:59;;;;;;;43.43;28.07;;;;;;;;;;5051041;28;20192;-85
2021/03/04 06:27:29;;;;;;;51.40;27.97;;;;;;;;;;5050155;28;20176;-85
2021/03/04 06:29:55;;;;;;;48.07;29.40;;;;;;;;;;5050159;28;20267;-85
2021/03/04 06:32:23;;;;;;;89.83;54.00;;;;;;;;;;5053581;28;20598;-85
2021/03/04 06:35:01;;;;;;;77.27;44.80;;;;;;;;;;5054073;28;20172;-85
2021/03/04 06:37:33;;;;;;;65.50;42.30;;;;;;;;;;5053924;28;20634;-85
2021/03/04 06:39:58;;;;;;;42.33;27.17;;;;;;;;;;5054200;28;20171;-85
2021/03/04 06:42:24;;;;;;;66.77;43.37;;;;;;;;;;5054305;28;20187;-86
2021/03/04 06:44:50;;;;;;;122.47;69.97;;;;;;;;;;5053958;28;20179;-86
2021/03/04 06:47:19;;;;;;;110.97;70.60;;;;;;;;;;5054283;28;20230;-86
2021/03/04 06:49:45;;;;;;;136.50;85.77;;;;;;;;;;5054086;28;20191;-85
2021/03/04 06:52:10;;;;;;;81.60;54.60;;;;;;;;;;5053903;28;20168;-85
2021/03/04 06:54:36;;;;;;;63.40;49.07;;;;;;;;;;5054004;28;20226;-86
2021/03/04 06:57:27;;;;;;;47.30;32.50;;;;;;;;;;5053830;28;20254;-85
2021/03/04 06:59:53;;;;;;;46.00;30.40;;;;;;;;;;5047086;28;20200;-86
2021/03/04 07:02:26;;;;;;;48.13;30.73;;;;;;;;;;5046916;28;20554;-86
2021/03/04 07:04:57;;;;;;;50.50;33.13;;;;;;;;;;5052353;28;20262;-86
2021/03/04 07:07:25;;;;;;;51.70;37.40;;;;;;;;;;5053628;28;20225;-86
2021/03/04 07:09:51;;;;;;;42.53;29.73;;;;;;;;;;5053709;28;20293;-86
2021/03/04 07:12:18;;;;;;;52.57;38.70;;;;;;;;;;5053626;28;20249;-86
2021/03/04 07:14:44;;;;;;;54.20;38.63;;;;;;;;;;5053350;28;20186;-86
2021/03/04 07:17:10;;;;;;;129.27;95.17;;;;;;;;;;5051929;28;20176;-86
2021/03/04 07:19:36;;;;;;;55.13;43.27;;;;;;;;;;5052803;28;20295;-86
2021/03/04 07:22:01;;;;;;;46.57;35.60;;;;;;;;;;5052989;28;20195;-86
2021/03/04 07:24:27;;;;;;;45.80;31.10;;;;;;;;;;5053398;28;20204;-86
2021/03/04 07:26:52;;;;;;;51.00;31.67;;;;;;;;;;5053181;28;20172;-86
2021/03/04 07:29:18;;;;;;;52.17;30.10;;;;;;;;;;5053362;28;20736;-86
2021/03/04 07:31:46;;;;;;;54.23;33.40;;;;;;;;;;5052684;28;20202;-87
2021/03/04 07:34:12;;;;;;;53.60;31.70;;;;;;;;;;5053190;28;20164;-86
2021/03/04 07:36:37;;;;;;;52.40;31.67;;;;;;;;;;5051170;28;20199;-85
2021/03/04 07:39:06;;;;;;;57.17;35.50;;;;;;;;;;5051142;28;20233;-86
2021/03/04 07:41:44;;;;;;;43.50;28.63;;;;;;;;;;5050788;28;20538;-86
2021/03/04 07:44:21;;;;;;;46.80;32.43;;;;;;;;;;5052284;28;20183;-86
2021/03/04 07:46:51;;;;;;;61.50;40.27;;;;;;;;;;5052870;28;20778;-85
2021/03/04 07:49:16;;;;;;;59.93;41.00;;;;;;;;;;5052654;28;20210;-85
2021/03/04 07:51:43;;;;;;;50.03;32.13;;;;;;;;;;5052977;28;20188;-85
2021/03/04 07:54:08;;;;;;;54.00;38.67;;;;;;;;;;5052477;28;20254;-86
2021/03/04 07:56:34;;;;;;;66.53;50.77;;;;;;;;;;5052560;28;20588;-86
2021/03/04 07:59:10;;;;;;;60.87;38.70;;;;;;;;;;5052619;28;20211;-86
2021/03/04 08:01:35;;;;;;;44.30;29.43;;;;;;;;;;5052543;28;20239;-86
2021/03/04 08:04:01;;;;;;;41.53;29.13;;;;;;;;;;5052629;28;20631;-86
2021/03/04 08:06:27;;;;;;;51.27;36.70;;;;;;;;;;5052436;28;20923;-86
2021/03/04 08:08:53;;;;;;;48.47;35.67;;;;;;;;;;5052698;28;20255;-85
2021/03/04 08:11:28;;;;;;;48.57;34.73;;;;;;;;;;5051839;28;20171;-86
2021/03/04 08:13:54;;;;;;;47.33;31.33;;;;;;;;;;5052265;28;20207;-86
2021/03/04 08:16:19;;;;;;;48.43;34.47;;;;;;;;;;5051771;28;20195;-84
2021/03/04 08:18:57;;;;;;;50.83;34.77;;;;;;;;;;5052290;28;20453;-85
2021/03/04 08:21:24;;;;;;;51.40;32.87;;;;;;;;;;5052218;28;20187;-85
2021/03/04 08:23:50;;;;;;;46.97;32.23;;;;;;;;;;5052020;28;20184;-86
2021/03/04 08:26:22;;;;;;;44.33;30.83;;;;;;;;;;5052105;28;20179;-84
2021/03/04 08:28:49;;;;;;;57.47;37.07;;;;;;;;;;5051814;28;20568;-85
2021/03/04 08:31:15;;;;;;;70.23;47.00;;;;;;;;;;5051354;28;20184;-86
2021/03/04 08:33:40;;;;;;;63.10;43.97;;;;;;;;;;5051640;28;20533;-85
2021/03/04 08:36:05;;;;;;;60.47;40.23;;;;;;;;;;5052231;28;20203;-84
2021/03/04 08:38:38;;;;;;;53.07;35.67;;;;;;;;;;5051932;28;20199;-84
2021/03/04 08:41:03;;;;;;;53.43;35.30;;;;;;;;;;5053079;28;20176;-84
2021/03/04 08:43:29;;;;;;;53.60;37.03;;;;;;;;;;5055242;28;20186;-84
2021/03/04 08:45:56;;;;;;;46.93;31.40;;;;;;;;;;5054664;28;20194;-84
2021/03/04 08:48:22;;;;;;;48.13;32.57;;;;;;;;;;5054827;28;20191;-84
2021/03/04 08:50:52;;;;;;;46.87;33.20;;;;;;;;;;5040177;28;20165;-84
2021/03/04 08:53:19;;;;;;;48.93;34.07;;;;;;;;;;5056797;28;20710;-84
2021/03/04 08:55:44;;;;;;;53.67;38.77;;;;;;;;;;5066364;28;20203;-84
2021/03/04 08:58:10;;;;;;;51.50;34.07;;;;;;;;;;5051198;28;20227;-84
2021/03/04 09:00:36;;;;;;;50.83;33.57;;;;;;;;;;5060306;28;20262;-84
2021/03/04 09:03:10;;;;;;;57.20;36.87;;;;;;;;;;5071280;28;20179;-84
2021/03/04 09:05:39;;;;;;;54.70;37.43;;;;;;;;;;5070986;28;20175;-84
2021/03/04 09:08:10;;;;;;;53.13;35.27;;;;;;;;;;5069177;28;20184;-84
2021/03/04 09:10:53;;;;;;;50.87;34.77;;;;;;;;;;5051054;28;20184;-84
2021/03/04 09:13:25;;;;;;;51.00;34.30;;;;;;;;;;5052268;28;20185;-83
2021/03/04 09:16:03;;;;;;;52.47;35.23;;;;;;;;;;5053779;28;20548;-83
2021/03/04 09:18:29;;;;;;;51.83;35.10;;;;;;;;;;5052465;28;20215;-82
2021/03/04 09:20:55;;;;;;;53.97;36.03;;;;;;;;;;5053603;28;20192;-83
2021/03/04 09:23:21;;;;;;;51.90;35.73;;;;;;;;;;5053362;28;20207;-83
2021/03/04 09:25:46;;;;;;;58.50;36.73;;;;;;;;;;5053335;28;20179;-83
2021/03/04 09:28:13;;;;;;;52.37;36.10;;;;;;;;;;5053856;28;20176;-83
2021/03/04 09:30:38;;;;;;;57.50;37.80;;;;;;;;;;5054013;28;20199;-82
2021/03/04 09:33:14;;;;;;;54.67;36.87;;;;;;;;;;5051440;28;20221;-84
2021/03/04 09:35:39;;;;;;;54.80;37.70;;;;;;;;;;5049873;28;20195;-84
2021/03/04 09:38:05;;;;;;;53.10;35.70;;;;;;;;;;5050178;28;20218;-83
2021/03/04 09:40:31;;;;;;;59.53;38.93;;;;;;;;;;5050196;28;20172;-84
2021/03/04 09:42:57;;;;;;;61.77;40.90;;;;;;;;;;5048621;28;20176;-85
2021/03/04 09:45:23;;;;;;;60.53;39.47;;;;;;;;;;5049726;28;20214;-84
2021/03/04 09:47:49;;;;;;;55.83;40.30;;;;;;;;;;5047506;28;20587;-85
2021/03/04 09:50:17;;;;;;;58.97;39.37;;;;;;;;;;5049585;28;20175;-85
2021/03/04 09:52:43;;;;;;;55.80;38.97;;;;;;;;;;5050027;28;20333;-86
2021/03/04 09:55:10;;;;;;;57.87;39.10;;;;;;;;;;5052910;28;20254;-85
2021/03/04 09:57:42;;;;;;;54.73;39.20;;;;;;;;;;5053789;28;20222;-84
2021/03/04 10:00:16;;;;;;;56.60;38.33;;;;;;;;;;5059936;28;20235;-84
2021/03/04 10:02:43;;;;;;;60.07;38.53;;;;;;;;;;5053205;28;20537;-83
2021/03/04 10:05:29;;;;;;;57.87;38.97;;;;;;;;;;5053283;28;20167;-83
2021/03/04 10:07:59;;;;;;;56.70;38.63;;;;;;;;;;5056950;28;20530;-83
2021/03/04 10:10:25;;;;;;;60.73;39.63;;;;;;;;;;5057566;28;20179;-83
2021/03/04 10:12:53;;;;;;;55.87;38.10;;;;;;;;;;5057578;28;20175;-83
2021/03/04 10:15:29;;;;;;;57.77;39.37;;;;;;;;;;5057498;28;20172;-83
2021/03/04 10:17:55;;;;;;;58.27;39.40;;;;;;;;;;5056930;28;20684;-83
2021/03/04 10:20:20;;;;;;;56.90;40.03;;;;;;;;;;5056076;28;20266;-83
2021/03/04 10:22:46;;;;;;;57.93;40.03;;;;;;;;;;5056955;28;20685;-83
2021/03/04 10:25:11;;;;;;;62.70;41.10;;;;;;;;;;5057179;28;20171;-83
2021/03/04 10:27:37;;;;;;;58.80;40.00;;;;;;;;;;5056992;28;20175;-83
2021/03/04 10:30:05;;;;;;;62.80;40.33;;;;;;;;;;5057102;28;20202;-83
2021/03/04 10:32:31;;;;;;;60.67;38.57;;;;;;;;;;5057234;28;20179;-83
2021/03/04 10:34:56;;;;;;;58.50;39.43;;;;;;;;;;5057116;28;20179;-83
2021/03/04 10:37:22;;;;;;;57.90;38.37;;;;;;;;;;5056844;28;20172;-83
2021/03/04 10:39:47;;;;;;;56.90;38.70;;;;;;;;;;5056653;28;20621;-83
2021/03/04 10:42:12;;;;;;;61.40;40.40;;;;;;;;;;5056684;28;20175;-83
2021/03/04 10:44:38;;;;;;;64.13;43.20;;;;;;;;;;5056822;28;20179;-83
2021/03/04 10:47:04;;;;;;;62.93;41.27;;;;;;;;;;5054837;28;20172;-84
2021/03/04 10:49:29;;;;;;;62.17;40.00;;;;;;;;;;5056862;28;20228;-83
2021/03/04 10:51:55;;;;;;;63.73;41.60;;;;;;;;;;5056132;28;20190;-83
2021/03/04 10:54:20;;;;;;;65.73;40.87;;;;;;;;;;5056335;28;20175;-84
2021/03/04 10:56:45;;;;;;;67.00;41.13;;;;;;;;;;5055040;28;20187;-84
2021/03/04 10:59:11;;;;;;;62.80;40.73;;;;;;;;;;5054371;28;20196;-83
2021/03/04 11:01:36;;;;;;;61.63;38.53;;;;;;;;;;5054939;28;20231;-84
2021/03/04 11:04:01;;;;;;;63.67;39.80;;;;;;;;;;5058192;28;20186;-84
2021/03/04 11:06:29;;;;;;;60.20;40.60;;;;;;;;;;5072577;28;20178;-85
2021/03/04 11:08:55;;;;;;;66.27;41.03;;;;;;;;;;5052935;28;20175;-83
2021/03/04 11:11:20;;;;;;;60.13;40.93;;;;;;;;;;5054392;28;20844;-84
2021/03/04 11:13:48;;;;;;;64.17;40.23;;;;;;;;;;5052599;28;20269;-83
2021/03/04 11:16:14;;;;;;;63.10;40.93;;;;;;;;;;5053692;28;20630;-84
2021/03/04 11:18:39;;;;;;;66.10;41.60;;;;;;;;;;5053759;28;20210;-84
2021/03/04 11:21:05;;;;;;;64.63;37.83;;;;;;;;;;5064257;28;20183;-83
2021/03/04 11:23:30;;;;;;;68.50;41.00;;;;;;;;;;5054497;28;20271;-83
2021/03/04 11:25:55;;;;;;;59.57;39.13;;;;;;;;;;5054277;28;20259;-83
2021/03/04 11:28:20;;;;;;;63.70;40.07;;;;;;;;;;5054308;28;20172;-84
2021/03/04 11:30:46;;;;;;;66.30;40.67;;;;;;;;;;5053002;28;20207;-84
2021/03/04 11:33:14;;;;;;;66.13;38.97;;;;;;;;;;5054255;28;20183;-83
2021/03/04 11:35:40;;;;;;;57.80;38.97;;;;;;;;;;5054127;28;20212;-84
2021/03/04 11:38:05;;;;;;;62.00;38.77;;;;;;;;;;5052129;28;20250;-83
2021/03/04 11:40:31;;;;;;;58.27;37.97;;;;;;;;;;5053900;28;20623;-84
2021/03/04 11:42:56;;;;;;;71.03;40.53;;;;;;;;;;5053386;28;20168;-83
2021/03/04 11:45:21;;;;;;;62.80;40.77;;;;;;;;;;5053873;28;20266;-84
2021/03/04 11:47:47;;;;;;;64.23;39.07;;;;;;;;;;5053809;28;20619;-84
2021/03/04 11:50:12;;;;;;;63.50;39.57;;;;;;;;;;5053903;28;20172;-83
2021/03/04 11:52:38;;;;;;;62.97;39.33;;;;;;;;;;5054410;28;20179;-84
2021/03/04 11:55:04;;;;;;;57.67;37.00;;;;;;;;;;5054065;28;20176;-84
2021/03/04 11:57:29;;;;;;;63.23;38.47;;;;;;;;;;5053695;28;20183;-84
2021/03/04 11:59:56;;;;;;;59.90;38.10;;;;;;;;;;5053279;28;20212;-84
2021/03/04 12:02:22;;;;;;;58.67;37.77;;;;;;;;;;5053825;28;20179;-84
2021/03/04 12:04:47;;;;;;;58.87;36.80;;;;;;;;;;5055824;28;20172;-85
2021/03/04 12:07:12;;;;;;;57.00;35.90;;;;;;;;;;5055143;28;20176;-85
2021/03/04 12:09:38;;;;;;;49.53;35.17;;;;;;;;;;5055162;28;20210;-85
2021/03/04 12:12:03;;;;;;;59.33;36.47;;;;;;;;;;5059446;28;20175;-85
2021/03/04 12:14:28;;;;;;;63.53;38.27;;;;;;;;;;5054981;28;20206;-85
2021/03/04 12:16:54;;;;;;;58.93;37.00;;;;;;;;;;5055067;28;20172;-84
2021/03/04 12:19:19;;;;;;;55.87;35.83;;;;;;;;;;5055179;28;20208;-85
2021/03/04 12:21:44;;;;;;;58.10;36.67;;;;;;;;;;5055511;28;20172;-84
2021/03/04 12:24:10;;;;;;;66.50;39.10;;;;;;;;;;5054802;28;20174;-83
2021/03/04 12:26:36;;;;;;;60.13;38.30;;;;;;;;;;5055034;28;20179;-84
2021/03/04 12:29:01;;;;;;;63.37;36.50;;;;;;;;;;5053646;28;20669;-84
2021/03/04 12:31:27;;;;;;;62.80;37.40;;;;;;;;;;5054950;28;20202;-83
2021/03/04 12:33:52;;;;;;;51.40;32.60;;;;;;;;;;5054724;28;20179;-83
2021/03/04 12:36:17;;;;;;;50.67;32.93;;;;;;;;;;5052678;28;20196;-83
2021/03/04 12:38:44;;;;;;;50.73;34.00;;;;;;;;;;5053118;28;20222;-83
2021/03/04 12:41:09;;;;;;;52.97;33.67;;;;;;;;;;5052534;28;20557;-84
2021/03/04 12:43:35;;;;;;;54.77;34.70;;;;;;;;;;5051191;28;20175;-84
2021/03/04 12:46:01;;;;;;;53.40;34.97;;;;;;;;;;5052329;28;20179;-84
2021/03/04 12:48:27;;;;;;;56.77;35.07;;;;;;;;;;5051475;28;20175;-84
2021/03/04 12:50:52;;;;;;;65.07;40.00;;;;;;;;;;5052711;28;20168;-84
2021/03/04 12:53:17;;;;;;;62.57;38.20;;;;;;;;;;5053623;28;20176;-84
2021/03/04 12:55:43;;;;;;;63.93;38.53;;;;;;;;;;5054196;28;20202;-84
2021/03/04 12:58:12;;;;;;;61.67;38.33;;;;;;;;;;5053727;28;20557;-84
2021/03/04 13:00:37;;;;;;;62.60;38.47;;;;;;;;;;5050697;28;20690;-84
2021/03/04 13:03:03;;;;;;;65.10;37.83;;;;;;;;;;5054209;28;20214;-83
2021/03/04 13:05:28;;;;;;;64.07;38.80;;;;;;;;;;5051895;28;20210;-84
2021/03/04 13:07:56;;;;;;;56.90;36.30;;;;;;;;;;5054200;28;20172;-83
2021/03/04 13:10:21;;;;;;;58.80;37.30;;;;;;;;;;5054372;28;20338;-83
2021/03/04 13:12:47;;;;;;;55.40;35.03;;;;;;;;;;5052495;28;20171;-83
2021/03/04 13:15:12;;;;;;;52.77;33.60;;;;;;;;;;5051238;28;20262;-83
2021/03/04 13:17:37;;;;;;;54.63;34.07;;;;;;;;;;5052843;28;20175;-83
2021/03/04 13:20:03;;;;;;;55.53;33.90;;;;;;;;;;5053899;28;20626;-83
2021/03/04 13:22:28;;;;;;;55.97;34.80;;;;;;;;;;5052842;28;20542;-83
2021/03/04 13:24:54;;;;;;;56.17;36.33;;;;;;;;;;5051920;28;20210;-82
2021/03/04 13:27:19;;;;;;;58.27;35.93;;;;;;;;;;5052127;28;20168;-83
2021/03/04 13:29:44;;;;;;;61.93;36.67;;;;;;;;;;5051863;28;20214;-83
2021/03/04 13:32:10;;;;;;;61.40;36.30;;;;;;;;;;5052131;28;20175;-82
2021/03/04 13:34:35;;;;;;;57.23;35.13;;;;;;;;;;5052143;28;20319;-83
2021/03/04 13:37:01;;;;;;;54.83;33.77;;;;;;;;;;5051764;28;20663;-83
2021/03/04 13:39:26;;;;;;;56.10;35.50;;;;;;;;;;5049661;28;20214;-83
2021/03/04 13:41:51;;;;;;;53.57;33.23;;;;;;;;;;5049199;28;20183;-83
2021/03/04 13:44:17;;;;;;;58.30;33.60;;;;;;;;;;5050297;28;20180;-83
2021/03/04 13:46:42;;;;;;;55.13;34.80;;;;;;;;;;5051922;28;20733;-83
2021/03/04 13:49:08;;;;;;;60.10;38.23;;;;;;;;;;5053265;28;20175;-83
2021/03/04 13:51:33;;;;;;;56.00;36.47;;;;;;;;;;5051750;28;20222;-83
2021/03/04 13:53:58;;;;;;;53.90;33.97;;;;;;;;;;5052636;28;20175;-83
2021/03/04 13:56:26;;;;;;;52.93;34.17;;;;;;;;;;5052842;28;20263;-83
2021/03/04 13:58:51;;;;;;;56.97;35.30;;;;;;;;;;5053048;28;20650;-83
2021/03/04 14:01:16;;;;;;;79.63;45.70;;;;;;;;;;5053488;28;20274;-83
2021/03/04 14:03:42;;;;;;;80.80;45.63;;;;;;;;;;5053316;28;20164;-83
2021/03/04 14:06:07;;;;;;;70.27;39.73;;;;;;;;;;5053257;28;20167;-83
2021/03/04 14:08:33;;;;;;;56.63;35.37;;;;;;;;;;5053520;28;20521;-83
2021/03/04 14:11:01;;;;;;;74.20;47.63;;;;;;;;;;5053519;28;20262;-83
2021/03/04 14:13:27;;;;;;;68.37;40.37;;;;;;;;;;5052239;28;20595;-83